Notice: Use of undefined constant NAME - assumed 'NAME' in /home/bismarckweather/public_html/wxwuhistory.php on line 72

Notice: Use of undefined constant NAME - assumed 'NAME' in /home/bismarckweather/public_html/wxwuhistory.php on line 72
^^
Station Historical Data
Daily Summary for August 10, 2018 Units:  Both    English   Metric
« Previous Day
Next Day »
Daily Weekly Monthly Yearly Custom
  High: Low: Average:
Temperature: 96.5 °F /  35.8 °C 63.8 °F /  17.7 °C 80.2 °F /  26.8 °C
Dew Point: 66.2 °F /  19 °C 56.6 °F /  13.7 °C 60.4 °F /  15.8 °C
Humidity: 80% 27% 54%
Wind Speed: 12mph /  19.3km/h - 6.4mph /  10.3km/h
Wind Gust: 15mph /  24.1km/h - -
Wind- - East
Pressure: 29.90 in /  1012.4 hPa 29.82 in /  1009.7 hPa -
Precipitation: 0 in /  0 mm    
Historical Graphs
 
 
Tabular Data for August 10, 2018
Time Temperature Dew Point Pressure Wind Wind Speed Wind Gust Humidity Rainfall Rate (Hourly) solar Conditions
00:04 72.7 °F /  22.6 °C 59.4 °F /  15.2 °C 29.89in /  1012.1hPa ESE 5mph /  8km/h 7mph /  11.3km/h 63% 0in /  0mm 0.00 W/m2
00:09 72.6 °F /  22.6 °C 59.3 °F /  15.2 °C 29.89in /  1012.1hPa East 7mph /  11.3km/h 7mph /  11.3km/h 63% 0in /  0mm 0.00 W/m2
00:14 72.7 °F /  22.6 °C 59.4 °F /  15.2 °C 29.89in /  1012.1hPa East 7mph /  11.3km/h 8mph /  12.9km/h 63% 0in /  0mm 0.00 W/m2
00:19 72.5 °F /  22.5 °C 59.2 °F /  15.1 °C 29.89in /  1012.1hPa East 5mph /  8km/h 8mph /  12.9km/h 63% 0in /  0mm 0.00 W/m2
00:24 72.4 °F /  22.4 °C 59.1 °F /  15.1 °C 29.89in /  1012.1hPa ENE 7mph /  11.3km/h 9mph /  14.5km/h 63% 0in /  0mm 0.00 W/m2
00:29 72.8 °F /  22.7 °C 59 °F /  15 °C 29.89in /  1012.1hPa East 7mph /  11.3km/h 9mph /  14.5km/h 62% 0in /  0mm 0.00 W/m2
00:34 73.4 °F /  23 °C 59.1 °F /  15.1 °C 29.89in /  1012.1hPa East 6mph /  9.7km/h 9mph /  14.5km/h 61% 0in /  0mm 0.00 W/m2
00:39 73.6 °F /  23.1 °C 59.3 °F /  15.2 °C 29.89in /  1012.1hPa East 6mph /  9.7km/h 9mph /  14.5km/h 61% 0in /  0mm 0.00 W/m2
00:44 73.5 °F /  23.1 °C 59.2 °F /  15.1 °C 29.89in /  1012.1hPa East 8mph /  12.9km/h 9mph /  14.5km/h 61% 0in /  0mm 0.00 W/m2
00:49 73.5 °F /  23.1 °C 59.2 °F /  15.1 °C 29.89in /  1012.1hPa ENE 9mph /  14.5km/h 10mph /  16.1km/h 61% 0in /  0mm 0.00 W/m2
00:54 73.6 °F /  23.1 °C 59.3 °F /  15.2 °C 29.89in /  1012.1hPa East 7mph /  11.3km/h 10mph /  16.1km/h 61% 0in /  0mm 0.00 W/m2
00:59 73.7 °F /  23.2 °C 58.9 °F /  14.9 °C 29.89in /  1012.1hPa East 7mph /  11.3km/h 10mph /  16.1km/h 60% 0in /  0mm 0.00 W/m2
01:04 73.8 °F /  23.2 °C 59 °F /  15 °C 29.89in /  1012.1hPa East 8mph /  12.9km/h 10mph /  16.1km/h 60% 0in /  0mm 0.00 W/m2
01:09 73.9 °F /  23.3 °C 59.1 °F /  15.1 °C 29.89in /  1012.1hPa East 8mph /  12.9km/h 10mph /  16.1km/h 60% 0in /  0mm 0.00 W/m2
01:14 73.9 °F /  23.3 °C 59.1 °F /  15.1 °C 29.90in /  1012.4hPa East 8mph /  12.9km/h 11mph /  17.7km/h 60% 0in /  0mm 0.00 W/m2
01:19 73.5 °F /  23.1 °C 59.2 °F /  15.1 °C 29.90in /  1012.4hPa East 6mph /  9.7km/h 11mph /  17.7km/h 61% 0in /  0mm 0.00 W/m2
01:24 72.9 °F /  22.7 °C 59.1 °F /  15.1 °C 29.90in /  1012.4hPa East 7mph /  11.3km/h 10mph /  16.1km/h 62% 0in /  0mm 0.00 W/m2
01:29 72.4 °F /  22.4 °C 59.1 °F /  15.1 °C 29.90in /  1012.4hPa East 8mph /  12.9km/h 9mph /  14.5km/h 63% 0in /  0mm 0.00 W/m2
01:34 72.1 °F /  22.3 °C 58.8 °F /  14.9 °C 29.90in /  1012.4hPa East 8mph /  12.9km/h 9mph /  14.5km/h 63% 0in /  0mm 0.00 W/m2
01:39 72 °F /  22.2 °C 59.2 °F /  15.1 °C 29.89in /  1012.1hPa East 8mph /  12.9km/h 9mph /  14.5km/h 64% 0in /  0mm 0.00 W/m2
01:44 72 °F /  22.2 °C 58.7 °F /  14.8 °C 29.89in /  1012.1hPa East 10mph /  16.1km/h 10mph /  16.1km/h 63% 0in /  0mm 0.00 W/m2
01:49 72.4 °F /  22.4 °C 58.6 °F /  14.8 °C 29.89in /  1012.1hPa East 7mph /  11.3km/h 10mph /  16.1km/h 62% 0in /  0mm 0.00 W/m2
01:54 72.7 °F /  22.6 °C 58.5 °F /  14.7 °C 29.89in /  1012.1hPa East 8mph /  12.9km/h 10mph /  16.1km/h 61% 0in /  0mm 0.00 W/m2
01:59 72.7 °F /  22.6 °C 58.5 °F /  14.7 °C 29.89in /  1012.1hPa East 8mph /  12.9km/h 10mph /  16.1km/h 61% 0in /  0mm 0.00 W/m2
02:04 72.5 °F /  22.5 °C 58.3 °F /  14.6 °C 29.89in /  1012.1hPa East 7mph /  11.3km/h 9mph /  14.5km/h 61% 0in /  0mm 0.00 W/m2
02:09 72.4 °F /  22.4 °C 58.6 °F /  14.8 °C 29.89in /  1012.1hPa East 8mph /  12.9km/h 9mph /  14.5km/h 62% 0in /  0mm 0.00 W/m2
02:14 72.3 °F /  22.4 °C 58.5 °F /  14.7 °C 29.89in /  1012.1hPa East 7mph /  11.3km/h 9mph /  14.5km/h 62% 0in /  0mm 0.00 W/m2
02:19 72.2 °F /  22.3 °C 58 °F /  14.4 °C 29.89in /  1012.1hPa East 7mph /  11.3km/h 9mph /  14.5km/h 61% 0in /  0mm 0.00 W/m2
02:24 72.5 °F /  22.5 °C 58.3 °F /  14.6 °C 29.89in /  1012.1hPa East 7mph /  11.3km/h 9mph /  14.5km/h 61% 0in /  0mm 0.00 W/m2
02:29 72.5 °F /  22.5 °C 58.3 °F /  14.6 °C 29.89in /  1012.1hPa ENE 5mph /  8km/h 9mph /  14.5km/h 61% 0in /  0mm 0.00 W/m2
02:34 72.1 °F /  22.3 °C 57.9 °F /  14.4 °C 29.89in /  1012.1hPa East 7mph /  11.3km/h 8mph /  12.9km/h 61% 0in /  0mm 0.00 W/m2
02:39 72.2 °F /  22.3 °C 58 °F /  14.4 °C 29.89in /  1012.1hPa ENE 7mph /  11.3km/h 8mph /  12.9km/h 61% 0in /  0mm 0.00 W/m2
02:44 72.3 °F /  22.4 °C 58.1 °F /  14.5 °C 29.89in /  1012.1hPa East 6mph /  9.7km/h 8mph /  12.9km/h 61% 0in /  0mm 0.00 W/m2
02:49 72.5 °F /  22.5 °C 57.8 °F /  14.3 °C 29.89in /  1012.1hPa East 8mph /  12.9km/h 9mph /  14.5km/h 60% 0in /  0mm 0.00 W/m2
02:54 72.6 °F /  22.6 °C 57.4 °F /  14.1 °C 29.89in /  1012.1hPa ENE 5mph /  8km/h 9mph /  14.5km/h 59% 0in /  0mm 0.00 W/m2
02:59 72.9 °F /  22.7 °C 57.3 °F /  14.1 °C 29.89in /  1012.1hPa East 8mph /  12.9km/h 8mph /  12.9km/h 58% 0in /  0mm 0.00 W/m2
03:04 73.1 °F /  22.8 °C 57 °F /  13.9 °C 29.89in /  1012.1hPa East 8mph /  12.9km/h 8mph /  12.9km/h 57% 0in /  0mm 0.00 W/m2
03:09 73.3 °F /  22.9 °C 57.1 °F /  13.9 °C 29.89in /  1012.1hPa East 7mph /  11.3km/h 8mph /  12.9km/h 57% 0in /  0mm 0.00 W/m2
03:14 73.3 °F /  22.9 °C 57.1 °F /  13.9 °C 29.89in /  1012.1hPa East 7mph /  11.3km/h 9mph /  14.5km/h 57% 0in /  0mm 0.00 W/m2
03:19 72.9 °F /  22.7 °C 57.3 °F /  14.1 °C 29.89in /  1012.1hPa ESE 4mph /  6.4km/h 9mph /  14.5km/h 58% 0in /  0mm 0.00 W/m2
03:24 72 °F /  22.2 °C 57.4 °F /  14.1 °C 29.89in /  1012.1hPa ESE 5mph /  8km/h 8mph /  12.9km/h 60% 0in /  0mm 0.00 W/m2
03:29 71.3 °F /  21.8 °C 57.2 °F /  14 °C 29.89in /  1012.1hPa ESE 7mph /  11.3km/h 8mph /  12.9km/h 61% 0in /  0mm 0.00 W/m2
03:34 70.7 °F /  21.5 °C 57.5 °F /  14.2 °C 29.89in /  1012.1hPa ESE 5mph /  8km/h 8mph /  12.9km/h 63% 0in /  0mm 0.00 W/m2
03:39 70.3 °F /  21.3 °C 57.1 °F /  13.9 °C 29.88in /  1011.7hPa East 7mph /  11.3km/h 7mph /  11.3km/h 63% 0in /  0mm 0.00 W/m2
03:44 70.1 °F /  21.2 °C 57.4 °F /  14.1 °C 29.88in /  1011.7hPa East 6mph /  9.7km/h 8mph /  12.9km/h 64% 0in /  0mm 0.00 W/m2
03:49 70 °F /  21.1 °C 57.3 °F /  14.1 °C 29.88in /  1011.7hPa East 7mph /  11.3km/h 8mph /  12.9km/h 64% 0in /  0mm 0.00 W/m2
03:54 69.7 °F /  20.9 °C 57.4 °F /  14.1 °C 29.88in /  1011.7hPa East 5mph /  8km/h 8mph /  12.9km/h 65% 0in /  0mm 0.00 W/m2
03:59 69.7 °F /  20.9 °C 57.4 °F /  14.1 °C 29.88in /  1011.7hPa ENE 8mph /  12.9km/h 8mph /  12.9km/h 65% 0in /  0mm 0.00 W/m2
04:04 69.8 °F /  21 °C 57.1 °F /  13.9 °C 29.88in /  1011.7hPa East 8mph /  12.9km/h 9mph /  14.5km/h 64% 0in /  0mm 0.00 W/m2
04:09 70.1 °F /  21.2 °C 57.4 °F /  14.1 °C 29.88in /  1011.7hPa East 7mph /  11.3km/h 9mph /  14.5km/h 64% 0in /  0mm 0.00 W/m2
04:14 70.3 °F /  21.3 °C 57.1 °F /  13.9 °C 29.88in /  1011.7hPa ENE 7mph /  11.3km/h 9mph /  14.5km/h 63% 0in /  0mm 0.00 W/m2
04:19 70.2 °F /  21.2 °C 57 °F /  13.9 °C 29.88in /  1011.7hPa East 8mph /  12.9km/h 9mph /  14.5km/h 63% 0in /  0mm 0.00 W/m2
04:24 70.2 °F /  21.2 °C 57 °F /  13.9 °C 29.88in /  1011.7hPa East 8mph /  12.9km/h 9mph /  14.5km/h 63% 0in /  0mm 0.00 W/m2
04:29 70 °F /  21.1 °C 57.3 °F /  14.1 °C 29.88in /  1011.7hPa East 6mph /  9.7km/h 10mph /  16.1km/h 64% 0in /  0mm 0.00 W/m2
04:34 70 °F /  21.1 °C 57.3 °F /  14.1 °C 29.87in /  1011.4hPa East 9mph /  14.5km/h 10mph /  16.1km/h 64% 0in /  0mm 0.00 W/m2
04:39 70 °F /  21.1 °C 57.3 °F /  14.1 °C 29.87in /  1011.4hPa East 8mph /  12.9km/h 10mph /  16.1km/h 64% 0in /  0mm 0.00 W/m2
04:44 70.1 °F /  21.2 °C 57.4 °F /  14.1 °C 29.87in /  1011.4hPa East 8mph /  12.9km/h 10mph /  16.1km/h 64% 0in /  0mm 0.00 W/m2
04:49 70 °F /  21.1 °C 57.3 °F /  14.1 °C 29.87in /  1011.4hPa East 7mph /  11.3km/h 11mph /  17.7km/h 64% 0in /  0mm 0.00 W/m2
04:54 69.5 °F /  20.8 °C 57.2 °F /  14 °C 29.87in /  1011.4hPa ENE 8mph /  12.9km/h 11mph /  17.7km/h 65% 0in /  0mm 0.00 W/m2
04:59 68.8 °F /  20.4 °C 57.4 °F /  14.1 °C 29.87in /  1011.4hPa East 10mph /  16.1km/h 11mph /  17.7km/h 67% 0in /  0mm 0.00 W/m2
05:04 68.1 °F /  20.1 °C 57.1 °F /  13.9 °C 29.87in /  1011.4hPa East 8mph /  12.9km/h 11mph /  17.7km/h 68% 0in /  0mm 0.00 W/m2
05:09 67.7 °F /  19.8 °C 57.2 °F /  14 °C 29.87in /  1011.4hPa East 9mph /  14.5km/h 11mph /  17.7km/h 69% 0in /  0mm 0.00 W/m2
05:14 67.7 °F /  19.8 °C 57.2 °F /  14 °C 29.87in /  1011.4hPa East 7mph /  11.3km/h 11mph /  17.7km/h 69% 0in /  0mm 0.00 W/m2
05:19 67.7 °F /  19.8 °C 57.2 °F /  14 °C 29.86in /  1011.1hPa East 8mph /  12.9km/h 11mph /  17.7km/h 69% 0in /  0mm 0.00 W/m2
05:24 67.5 °F /  19.7 °C 57.4 °F /  14.1 °C 29.86in /  1011.1hPa East 8mph /  12.9km/h 11mph /  17.7km/h 70% 0in /  0mm 0.00 W/m2
05:29 67.3 °F /  19.6 °C 57.2 °F /  14 °C 29.86in /  1011.1hPa East 7mph /  11.3km/h 11mph /  17.7km/h 70% 0in /  0mm 0.00 W/m2
05:34 67.2 °F /  19.6 °C 57.5 °F /  14.2 °C 29.86in /  1011.1hPa ESE 9mph /  14.5km/h 11mph /  17.7km/h 71% 0in /  0mm 0.00 W/m2
05:39 67.2 °F /  19.6 °C 57.5 °F /  14.2 °C 29.86in /  1011.1hPa ESE 8mph /  12.9km/h 11mph /  17.7km/h 71% 0in /  0mm 0.00 W/m2
05:44 67 °F /  19.4 °C 57.3 °F /  14.1 °C 29.86in /  1011.1hPa East 6mph /  9.7km/h 10mph /  16.1km/h 71% 0in /  0mm 0.00 W/m2
05:49 66.8 °F /  19.3 °C 57.5 °F /  14.2 °C 29.86in /  1011.1hPa East 8mph /  12.9km/h 10mph /  16.1km/h 72% 0in /  0mm 0.00 W/m2
05:54 66.5 °F /  19.2 °C 57.2 °F /  14 °C 29.86in /  1011.1hPa East 7mph /  11.3km/h 9mph /  14.5km/h 72% 0in /  0mm 0.00 W/m2
05:59 66.1 °F /  18.9 °C 57.2 °F /  14 °C 29.86in /  1011.1hPa East 9mph /  14.5km/h 9mph /  14.5km/h 73% 0in /  0mm 0.00 W/m2
06:04 65.7 °F /  18.7 °C 56.8 °F /  13.8 °C 29.86in /  1011.1hPa East 8mph /  12.9km/h 9mph /  14.5km/h 73% 0in /  0mm 0.00 W/m2
06:09 65.3 °F /  18.5 °C 56.8 °F /  13.8 °C 29.86in /  1011.1hPa East 7mph /  11.3km/h 9mph /  14.5km/h 74% 0in /  0mm 0.00 W/m2
06:14 64.9 °F /  18.3 °C 56.8 °F /  13.8 °C 29.86in /  1011.1hPa East 7mph /  11.3km/h 11mph /  17.7km/h 75% 0in /  0mm 0.00 W/m2
06:19 64.8 °F /  18.2 °C 57.1 °F /  13.9 °C 29.86in /  1011.1hPa ENE 7mph /  11.3km/h 11mph /  17.7km/h 76% 0in /  0mm 0.00 W/m2
06:24 64.9 °F /  18.3 °C 56.8 °F /  13.8 °C 29.86in /  1011.1hPa East 9mph /  14.5km/h 11mph /  17.7km/h 75% 0in /  0mm 0.00 W/m2
06:29 64.9 °F /  18.3 °C 56.8 °F /  13.8 °C 29.86in /  1011.1hPa East 9mph /  14.5km/h 11mph /  17.7km/h 75% 0in /  0mm 0.00 W/m2
06:34 64.7 °F /  18.2 °C 57 °F /  13.9 °C 29.86in /  1011.1hPa ENE 8mph /  12.9km/h 11mph /  17.7km/h 76% 0in /  0mm 0.00 W/m2
06:39 64.5 °F /  18.1 °C 56.8 °F /  13.8 °C 29.86in /  1011.1hPa East 7mph /  11.3km/h 11mph /  17.7km/h 76% 0in /  0mm 7.00 W/m2
06:44 64.3 °F /  17.9 °C 56.9 °F /  13.8 °C 29.86in /  1011.1hPa East 8mph /  12.9km/h 11mph /  17.7km/h 77% 0in /  0mm 11.00 W/m2
06:49 64 °F /  17.8 °C 56.6 °F /  13.7 °C 29.86in /  1011.1hPa East 8mph /  12.9km/h 11mph /  17.7km/h 77% 0in /  0mm 16.00 W/m2
06:54 63.8 °F /  17.7 °C 56.8 °F /  13.8 °C 29.86in /  1011.1hPa East 6mph /  9.7km/h 10mph /  16.1km/h 78% 0in /  0mm 19.00 W/m2
06:59 63.8 °F /  17.7 °C 57.2 °F /  14 °C 29.86in /  1011.1hPa East 7mph /  11.3km/h 10mph /  16.1km/h 79% 0in /  0mm 25.00 W/m2
07:04 64 °F /  17.8 °C 57.4 °F /  14.1 °C 29.86in /  1011.1hPa East 8mph /  12.9km/h 10mph /  16.1km/h 79% 0in /  0mm 28.00 W/m2
07:09 64.1 °F /  17.8 °C 57.1 °F /  13.9 °C 29.86in /  1011.1hPa ENE 8mph /  12.9km/h 11mph /  17.7km/h 78% 0in /  0mm 33.00 W/m2
07:14 64.4 °F /  18 °C 57.4 °F /  14.1 °C 29.86in /  1011.1hPa East 8mph /  12.9km/h 11mph /  17.7km/h 78% 0in /  0mm 39.00 W/m2
07:19 64.5 °F /  18.1 °C 57.5 °F /  14.2 °C 29.86in /  1011.1hPa ENE 7mph /  11.3km/h 10mph /  16.1km/h 78% 0in /  0mm 44.00 W/m2
07:24 64.6 °F /  18.1 °C 57.6 °F /  14.2 °C 29.86in /  1011.1hPa East 9mph /  14.5km/h 10mph /  16.1km/h 78% 0in /  0mm 49.00 W/m2
07:29 64.6 °F /  18.1 °C 57.9 °F /  14.4 °C 29.86in /  1011.1hPa East 8mph /  12.9km/h 10mph /  16.1km/h 79% 0in /  0mm 53.00 W/m2
07:34 64.5 °F /  18.1 °C 57.8 °F /  14.3 °C 29.86in /  1011.1hPa East 8mph /  12.9km/h 10mph /  16.1km/h 79% 0in /  0mm 58.00 W/m2
07:39 64.6 °F /  18.1 °C 58.3 °F /  14.6 °C 29.86in /  1011.1hPa East 7mph /  11.3km/h 10mph /  16.1km/h 80% 0in /  0mm 62.00 W/m2
07:44 64.7 °F /  18.2 °C 58.4 °F /  14.7 °C 29.86in /  1011.1hPa East 8mph /  12.9km/h 10mph /  16.1km/h 80% 0in /  0mm 65.00 W/m2
07:49 64.9 °F /  18.3 °C 58.6 °F /  14.8 °C 29.86in /  1011.1hPa ESE 7mph /  11.3km/h 9mph /  14.5km/h 80% 0in /  0mm 70.00 W/m2
07:54 65.2 °F /  18.4 °C 58.5 °F /  14.7 °C 29.86in /  1011.1hPa East 8mph /  12.9km/h 9mph /  14.5km/h 79% 0in /  0mm 74.00 W/m2
07:59 65.5 °F /  18.6 °C 58.8 °F /  14.9 °C 29.86in /  1011.1hPa ESE 5mph /  8km/h 9mph /  14.5km/h 79% 0in /  0mm 79.00 W/m2
08:04 65.8 °F /  18.8 °C 59.1 °F /  15.1 °C 29.86in /  1011.1hPa ESE 7mph /  11.3km/h 9mph /  14.5km/h 79% 0in /  0mm 127.00 W/m2
08:09 66.1 °F /  18.9 °C 59 °F /  15 °C 29.86in /  1011.1hPa ESE 7mph /  11.3km/h 9mph /  14.5km/h 78% 0in /  0mm 141.00 W/m2
08:14 66.6 °F /  19.2 °C 59.5 °F /  15.3 °C 29.87in /  1011.4hPa East 5mph /  8km/h 9mph /  14.5km/h 78% 0in /  0mm 146.00 W/m2
08:19 67 °F /  19.4 °C 59.5 °F /  15.3 °C 29.87in /  1011.4hPa ESE 5mph /  8km/h 8mph /  12.9km/h 77% 0in /  0mm 149.00 W/m2
08:24 67.5 °F /  19.7 °C 60 °F /  15.6 °C 29.87in /  1011.4hPa ESE 5mph /  8km/h 8mph /  12.9km/h 77% 0in /  0mm 162.00 W/m2
08:29 68 °F /  20 °C 60.2 °F /  15.7 °C 29.87in /  1011.4hPa ESE 2mph /  3.2km/h 7mph /  11.3km/h 76% 0in /  0mm 183.00 W/m2
08:34 68.6 °F /  20.3 °C 60.4 °F /  15.8 °C 29.87in /  1011.4hPa ESE 1mph /  1.6km/h 6mph /  9.7km/h 75% 0in /  0mm 195.00 W/m2
08:39 69.1 °F /  20.6 °C 60.5 °F /  15.8 °C 29.87in /  1011.4hPa ESE 4mph /  6.4km/h 4mph /  6.4km/h 74% 0in /  0mm 211.00 W/m2
08:44 69.5 °F /  20.8 °C 60.5 °F /  15.8 °C 29.87in /  1011.4hPa SE 3mph /  4.8km/h 4mph /  6.4km/h 73% 0in /  0mm 225.00 W/m2
08:49 69.9 °F /  21.1 °C 60.8 °F /  16 °C 29.87in /  1011.4hPa SE 2mph /  3.2km/h 5mph /  8km/h 73% 0in /  0mm 241.00 W/m2
08:54 70.3 °F /  21.3 °C 60.8 °F /  16 °C 29.87in /  1011.4hPa SE 6mph /  9.7km/h 6mph /  9.7km/h 72% 0in /  0mm 255.00 W/m2
08:59 70.6 °F /  21.4 °C 61.1 °F /  16.2 °C 29.86in /  1011.1hPa SE 5mph /  8km/h 7mph /  11.3km/h 72% 0in /  0mm 278.00 W/m2
09:04 71 °F /  21.7 °C 61.1 °F /  16.2 °C 29.87in /  1011.4hPa SSE 3mph /  4.8km/h 7mph /  11.3km/h 71% 0in /  0mm 292.00 W/m2
09:09 71.3 °F /  21.8 °C 61.4 °F /  16.3 °C 29.87in /  1011.4hPa ESE 4mph /  6.4km/h 6mph /  9.7km/h 71% 0in /  0mm 301.00 W/m2
09:14 71.8 °F /  22.1 °C 61.5 °F /  16.4 °C 29.87in /  1011.4hPa ESE 2mph /  3.2km/h 4mph /  6.4km/h 70% 0in /  0mm 315.00 W/m2
09:19 72.4 °F /  22.4 °C 61.7 °F /  16.5 °C 29.87in /  1011.4hPa ESE 1mph /  1.6km/h 4mph /  6.4km/h 69% 0in /  0mm 329.00 W/m2
09:24 72.9 °F /  22.7 °C 61.7 °F /  16.5 °C 29.87in /  1011.4hPa ESE 2mph /  3.2km/h 5mph /  8km/h 68% 0in /  0mm 341.00 W/m2
09:29 73.4 °F /  23 °C 61.8 °F /  16.6 °C 29.87in /  1011.4hPa SE 1mph /  1.6km/h 5mph /  8km/h 67% 0in /  0mm 352.00 W/m2
09:34 73.7 °F /  23.2 °C 62.1 °F /  16.7 °C 29.87in /  1011.4hPa East 3mph /  4.8km/h 4mph /  6.4km/h 67% 0in /  0mm 366.00 W/m2
09:39 73.9 °F /  23.3 °C 61.8 °F /  16.6 °C 29.87in /  1011.4hPa ESE 1mph /  1.6km/h 4mph /  6.4km/h 66% 0in /  0mm 381.00 W/m2
09:44 74.3 °F /  23.5 °C 61.8 °F /  16.6 °C 29.87in /  1011.4hPa Calm   4mph /  6.4km/h 65% 0in /  0mm 394.00 W/m2
09:49 74.9 °F /  23.8 °C 61.9 °F /  16.6 °C 29.87in /  1011.4hPa SE 2mph /  3.2km/h 3mph /  4.8km/h 64% 0in /  0mm 408.00 W/m2
09:54 75.4 °F /  24.1 °C 62.8 °F /  17.1 °C 29.87in /  1011.4hPa Calm   3mph /  4.8km/h 65% 0in /  0mm 420.00 W/m2
09:59 75.6 °F /  24.2 °C 61.7 °F /  16.5 °C 29.88in /  1011.7hPa SE 2mph /  3.2km/h 2mph /  3.2km/h 62% 0in /  0mm 429.00 W/m2
10:04 75.6 °F /  24.2 °C 62.1 °F /  16.7 °C 29.88in /  1011.7hPa NNW 1mph /  1.6km/h 3mph /  4.8km/h 63% 0in /  0mm 443.00 W/m2
10:09 75.8 °F /  24.3 °C 61.8 °F /  16.6 °C 29.88in /  1011.7hPa NNW 2mph /  3.2km/h 3mph /  4.8km/h 62% 0in /  0mm 459.00 W/m2
10:14 75.8 °F /  24.3 °C 61.8 °F /  16.6 °C 29.87in /  1011.4hPa North 1mph /  1.6km/h 4mph /  6.4km/h 62% 0in /  0mm 475.00 W/m2
10:19 76 °F /  24.4 °C 62.5 °F /  16.9 °C 29.87in /  1011.4hPa NNE 1mph /  1.6km/h 4mph /  6.4km/h 63% 0in /  0mm 487.00 W/m2
10:24 76.7 °F /  24.8 °C 61.8 °F /  16.6 °C 29.87in /  1011.4hPa North 4mph /  6.4km/h 4mph /  6.4km/h 60% 0in /  0mm 503.00 W/m2
10:29 77.6 °F /  25.3 °C 63.1 °F /  17.3 °C 29.87in /  1011.4hPa ENE 1mph /  1.6km/h 4mph /  6.4km/h 61% 0in /  0mm 517.00 W/m2
10:34 78.7 °F /  25.9 °C 63.2 °F /  17.3 °C 29.87in /  1011.4hPa NE 3mph /  4.8km/h 4mph /  6.4km/h 59% 0in /  0mm 524.00 W/m2
10:39 79.8 °F /  26.6 °C 63.2 °F /  17.3 °C 29.87in /  1011.4hPa NE 1mph /  1.6km/h 5mph /  8km/h 57% 0in /  0mm 534.00 W/m2
10:44 80.8 °F /  27.1 °C 63.6 °F /  17.6 °C 29.87in /  1011.4hPa NE 1mph /  1.6km/h 5mph /  8km/h 56% 0in /  0mm 552.00 W/m2
10:49 81.5 °F /  27.5 °C 63.3 °F /  17.4 °C 29.87in /  1011.4hPa ENE 3mph /  4.8km/h 5mph /  8km/h 54% 0in /  0mm 559.00 W/m2
10:54 81.9 °F /  27.7 °C 64.7 °F /  18.2 °C 29.87in /  1011.4hPa NNE 5mph /  8km/h 7mph /  11.3km/h 56% 0in /  0mm 573.00 W/m2
10:59 82.4 °F /  28 °C 64.1 °F /  17.8 °C 29.86in /  1011.1hPa ENE 2mph /  3.2km/h 7mph /  11.3km/h 54% 0in /  0mm 571.00 W/m2
11:04 82.8 °F /  28.2 °C 65 °F /  18.3 °C 29.86in /  1011.1hPa NNE 5mph /  8km/h 7mph /  11.3km/h 55% 0in /  0mm 571.00 W/m2
11:09 83.4 °F /  28.6 °C 64.5 °F /  18.1 °C 29.86in /  1011.1hPa ENE 4mph /  6.4km/h 8mph /  12.9km/h 53% 0in /  0mm 552.00 W/m2
11:14 83.8 °F /  28.8 °C 63.7 °F /  17.6 °C 29.87in /  1011.4hPa ESE 4mph /  6.4km/h 8mph /  12.9km/h 51% 0in /  0mm 538.00 W/m2
11:19 83.8 °F /  28.8 °C 63.2 °F /  17.3 °C 29.86in /  1011.1hPa East 5mph /  8km/h 8mph /  12.9km/h 50% 0in /  0mm 531.00 W/m2
11:24 83.6 °F /  28.7 °C 63.6 °F /  17.6 °C 29.86in /  1011.1hPa NE 6mph /  9.7km/h 8mph /  12.9km/h 51% 0in /  0mm 536.00 W/m2
11:29 84.2 °F /  29 °C 63.5 °F /  17.5 °C 29.86in /  1011.1hPa ENE 4mph /  6.4km/h 8mph /  12.9km/h 50% 0in /  0mm 552.00 W/m2
11:34 84.7 °F /  29.3 °C 64 °F /  17.8 °C 29.86in /  1011.1hPa ENE 3mph /  4.8km/h 8mph /  12.9km/h 50% 0in /  0mm 587.00 W/m2
11:39 85.3 °F /  29.6 °C 64 °F /  17.8 °C 29.86in /  1011.1hPa East 1mph /  1.6km/h 7mph /  11.3km/h 49% 0in /  0mm 626.00 W/m2
11:44 86.2 °F /  30.1 °C 64.2 °F /  17.9 °C 29.86in /  1011.1hPa NE 1mph /  1.6km/h 5mph /  8km/h 48% 0in /  0mm 656.00 W/m2
11:49 87.1 °F /  30.6 °C 63.8 °F /  17.7 °C 29.86in /  1011.1hPa SE 4mph /  6.4km/h 7mph /  11.3km/h 46% 0in /  0mm 682.00 W/m2
11:54 87.6 °F /  30.9 °C 63 °F /  17.2 °C 29.86in /  1011.1hPa East 7mph /  11.3km/h 9mph /  14.5km/h 44% 0in /  0mm 694.00 W/m2
11:59 87.6 °F /  30.9 °C 64.3 °F /  17.9 °C 29.86in /  1011.1hPa SE 4mph /  6.4km/h 9mph /  14.5km/h 46% 0in /  0mm 698.00 W/m2
12:04 87.9 °F /  31.1 °C 63.3 °F /  17.4 °C 29.86in /  1011.1hPa East 2mph /  3.2km/h 8mph /  12.9km/h 44% 0in /  0mm 708.00 W/m2
12:09 87.9 °F /  31.1 °C 61.9 °F /  16.6 °C 29.86in /  1011.1hPa NE 6mph /  9.7km/h 9mph /  14.5km/h 42% 0in /  0mm 717.00 W/m2
12:14 88.2 °F /  31.2 °C 62.2 °F /  16.8 °C 29.86in /  1011.1hPa East 7mph /  11.3km/h 11mph /  17.7km/h 42% 0in /  0mm 721.00 W/m2
12:19 88.5 °F /  31.4 °C 61.1 °F /  16.2 °C 29.86in /  1011.1hPa ESE 4mph /  6.4km/h 11mph /  17.7km/h 40% 0in /  0mm 729.00 W/m2
12:24 88.8 °F /  31.6 °C 61.4 °F /  16.3 °C 29.86in /  1011.1hPa East 5mph /  8km/h 10mph /  16.1km/h 40% 0in /  0mm 737.00 W/m2
12:29 88.9 °F /  31.6 °C 61.5 °F /  16.4 °C 29.86in /  1011.1hPa ENE 5mph /  8km/h 9mph /  14.5km/h 40% 0in /  0mm 745.00 W/m2
12:34 89 °F /  31.7 °C 61.5 °F /  16.4 °C 29.86in /  1011.1hPa ESE 3mph /  4.8km/h 8mph /  12.9km/h 40% 0in /  0mm 747.00 W/m2
12:39 89.4 °F /  31.9 °C 61.9 °F /  16.6 °C 29.86in /  1011.1hPa ENE 8mph /  12.9km/h 10mph /  16.1km/h 40% 0in /  0mm 752.00 W/m2
12:44 89.7 °F /  32.1 °C 62.2 °F /  16.8 °C 29.86in /  1011.1hPa East 7mph /  11.3km/h 10mph /  16.1km/h 40% 0in /  0mm 758.00 W/m2
12:49 90 °F /  32.2 °C 62.4 °F /  16.9 °C 29.86in /  1011.1hPa East 6mph /  9.7km/h 10mph /  16.1km/h 40% 0in /  0mm 765.00 W/m2
12:54 90.3 °F /  32.4 °C 63.4 °F /  17.4 °C 29.86in /  1011.1hPa SSE 6mph /  9.7km/h 9mph /  14.5km/h 41% 0in /  0mm 772.00 W/m2
12:59 90.9 °F /  32.7 °C 62.5 °F /  16.9 °C 29.86in /  1011.1hPa NE 2mph /  3.2km/h 9mph /  14.5km/h 39% 0in /  0mm 775.00 W/m2
13:04 90.9 °F /  32.7 °C 62.5 °F /  16.9 °C 29.86in /  1011.1hPa ESE 7mph /  11.3km/h 10mph /  16.1km/h 39% 0in /  0mm 782.00 W/m2
13:09 90.9 °F /  32.7 °C 63.2 °F /  17.3 °C 29.86in /  1011.1hPa ESE 10mph /  16.1km/h 14mph /  22.5km/h 40% 0in /  0mm 782.00 W/m2
13:14 91.1 °F /  32.8 °C 62.7 °F /  17.1 °C 29.86in /  1011.1hPa SE 6mph /  9.7km/h 14mph /  22.5km/h 39% 0in /  0mm 793.00 W/m2
13:19 91.1 °F /  32.8 °C 62 °F /  16.7 °C 29.86in /  1011.1hPa ENE 8mph /  12.9km/h 13mph /  20.9km/h 38% 0in /  0mm 798.00 W/m2
13:24 91.4 °F /  33 °C 62.2 °F /  16.8 °C 29.86in /  1011.1hPa SE 8mph /  12.9km/h 13mph /  20.9km/h 38% 0in /  0mm 798.00 W/m2
13:29 91.7 °F /  33.2 °C 63.2 °F /  17.3 °C 29.86in /  1011.1hPa East 6mph /  9.7km/h 10mph /  16.1km/h 39% 0in /  0mm 800.00 W/m2
13:34 92.2 °F /  33.4 °C 62.9 °F /  17.2 °C 29.86in /  1011.1hPa NE 7mph /  11.3km/h 8mph /  12.9km/h 38% 0in /  0mm 798.00 W/m2
13:39 92.6 °F /  33.7 °C 62.5 °F /  16.9 °C 29.86in /  1011.1hPa East 6mph /  9.7km/h 13mph /  20.9km/h 37% 0in /  0mm 807.00 W/m2
13:44 92.3 °F /  33.5 °C 63 °F /  17.2 °C 29.86in /  1011.1hPa East 7mph /  11.3km/h 13mph /  20.9km/h 38% 0in /  0mm 807.00 W/m2
13:49 92.5 °F /  33.6 °C 62.4 °F /  16.9 °C 29.86in /  1011.1hPa ENE 7mph /  11.3km/h 12mph /  19.3km/h 37% 0in /  0mm 805.00 W/m2
13:54 92.8 °F /  33.8 °C 63.5 °F /  17.5 °C 29.86in /  1011.1hPa SSE 7mph /  11.3km/h 10mph /  16.1km/h 38% 0in /  0mm 802.00 W/m2
13:59 92.9 °F /  33.8 °C 63.6 °F /  17.6 °C 29.85in /  1010.7hPa Calm   8mph /  12.9km/h 38% 0in /  0mm 803.00 W/m2
14:04 93.2 °F /  34 °C 62.3 °F /  16.8 °C 29.85in /  1010.7hPa East 7mph /  11.3km/h 9mph /  14.5km/h 36% 0in /  0mm 805.00 W/m2
14:09 93.5 °F /  34.2 °C 62.5 °F /  16.9 °C 29.85in /  1010.7hPa SE 1mph /  1.6km/h 9mph /  14.5km/h 36% 0in /  0mm 803.00 W/m2
14:14 93.5 °F /  34.2 °C 63.3 °F /  17.4 °C 29.85in /  1010.7hPa East 8mph /  12.9km/h 10mph /  16.1km/h 37% 0in /  0mm 802.00 W/m2
14:19 93.7 °F /  34.3 °C 61.1 °F /  16.2 °C 29.85in /  1010.7hPa SE 2mph /  3.2km/h 10mph /  16.1km/h 34% 0in /  0mm 802.00 W/m2
14:24 93.8 °F /  34.3 °C 62.8 °F /  17.1 °C 29.85in /  1010.7hPa East 8mph /  12.9km/h 11mph /  17.7km/h 36% 0in /  0mm 800.00 W/m2
14:29 94 °F /  34.4 °C 63 °F /  17.2 °C 29.85in /  1010.7hPa SSE 7mph /  11.3km/h 11mph /  17.7km/h 36% 0in /  0mm 796.00 W/m2
14:34 94.3 °F /  34.6 °C 62.4 °F /  16.9 °C 29.85in /  1010.7hPa East 3mph /  4.8km/h 11mph /  17.7km/h 35% 0in /  0mm 798.00 W/m2
14:39 94.5 °F /  34.7 °C 61.8 °F /  16.6 °C 29.84in /  1010.4hPa East 6mph /  9.7km/h 14mph /  22.5km/h 34% 0in /  0mm 788.00 W/m2
14:44 94.5 °F /  34.7 °C 61.8 °F /  16.6 °C 29.84in /  1010.4hPa ESE 7mph /  11.3km/h 14mph /  22.5km/h 34% 0in /  0mm 789.00 W/m2
14:49 94.5 °F /  34.7 °C 61 °F /  16.1 °C 29.84in /  1010.4hPa ESE 7mph /  11.3km/h 14mph /  22.5km/h 33% 0in /  0mm 784.00 W/m2
14:54 94.5 °F /  34.7 °C 62.6 °F /  17 °C 29.84in /  1010.4hPa NE 7mph /  11.3km/h 14mph /  22.5km/h 35% 0in /  0mm 779.00 W/m2
14:59 94.7 °F /  34.8 °C 63.6 °F /  17.6 °C 29.84in /  1010.4hPa SE 3mph /  4.8km/h 11mph /  17.7km/h 36% 0in /  0mm 773.00 W/m2
15:04 94.8 °F /  34.9 °C 61.2 °F /  16.2 °C 29.84in /  1010.4hPa ENE 10mph /  16.1km/h 13mph /  20.9km/h 33% 0in /  0mm 765.00 W/m2
15:09 94.9 °F /  34.9 °C 61.3 °F /  16.3 °C 29.84in /  1010.4hPa ESE 10mph /  16.1km/h 13mph /  20.9km/h 33% 0in /  0mm 754.00 W/m2
15:14 94.9 °F /  34.9 °C 57.7 °F /  14.3 °C 29.84in /  1010.4hPa NE 5mph /  8km/h 11mph /  17.7km/h 29% 0in /  0mm 749.00 W/m2
15:19 95.4 °F /  35.2 °C 61.7 °F /  16.5 °C 29.84in /  1010.4hPa East 5mph /  8km/h 11mph /  17.7km/h 33% 0in /  0mm 737.00 W/m2
15:24 95.7 °F /  35.4 °C 62 °F /  16.7 °C 29.84in /  1010.4hPa ENE 9mph /  14.5km/h 11mph /  17.7km/h 33% 0in /  0mm 728.00 W/m2
15:29 95.4 °F /  35.2 °C 59.1 °F /  15.1 °C 29.84in /  1010.4hPa East 5mph /  8km/h 11mph /  17.7km/h 30% 0in /  0mm 722.00 W/m2
15:34 95.7 °F /  35.4 °C 59.3 °F /  15.2 °C 29.83in /  1010hPa ENE 8mph /  12.9km/h 13mph /  20.9km/h 30% 0in /  0mm 724.00 W/m2
15:39 95.8 °F /  35.4 °C 60.3 °F /  15.7 °C 29.83in /  1010hPa East 7mph /  11.3km/h 13mph /  20.9km/h 31% 0in /  0mm 714.00 W/m2
15:44 96.1 °F /  35.6 °C 59.7 °F /  15.4 °C 29.83in /  1010hPa ENE 7mph /  11.3km/h 9mph /  14.5km/h 30% 0in /  0mm 710.00 W/m2
15:49 96.3 °F /  35.7 °C 58.9 °F /  14.9 °C 29.83in /  1010hPa NNE 4mph /  6.4km/h 11mph /  17.7km/h 29% 0in /  0mm 714.00 W/m2
15:54 96.5 °F /  35.8 °C 60 °F /  15.6 °C 29.83in /  1010hPa SE 5mph /  8km/h 11mph /  17.7km/h 30% 0in /  0mm 684.00 W/m2
15:59 96.3 °F /  35.7 °C 60.7 °F /  15.9 °C 29.83in /  1010hPa SE 7mph /  11.3km/h 11mph /  17.7km/h 31% 0in /  0mm 675.00 W/m2
16:04 96.1 °F /  35.6 °C 59.7 °F /  15.4 °C 29.83in /  1010hPa ESE 12mph /  19.3km/h 13mph /  20.9km/h 30% 0in /  0mm 659.00 W/m2
16:09 95.8 °F /  35.4 °C 59.4 °F /  15.2 °C 29.83in /  1010hPa East 3mph /  4.8km/h 13mph /  20.9km/h 30% 0in /  0mm 654.00 W/m2
16:14 96.1 °F /  35.6 °C 58.7 °F /  14.8 °C 29.83in /  1010hPa NE 5mph /  8km/h 13mph /  20.9km/h 29% 0in /  0mm 635.00 W/m2
16:19 96.5 °F /  35.8 °C 60 °F /  15.6 °C 29.83in /  1010hPa SE 4mph /  6.4km/h 13mph /  20.9km/h 30% 0in /  0mm 626.00 W/m2
16:24 96.3 °F /  35.7 °C 58.9 °F /  14.9 °C 29.83in /  1010hPa SE 8mph /  12.9km/h 10mph /  16.1km/h 29% 0in /  0mm 626.00 W/m2
16:29 96 °F /  35.6 °C 58.6 °F /  14.8 °C 29.83in /  1010hPa East 5mph /  8km/h 12mph /  19.3km/h 29% 0in /  0mm 605.00 W/m2
16:34 96 °F /  35.6 °C 58.6 °F /  14.8 °C 29.83in /  1010hPa NE 9mph /  14.5km/h 12mph /  19.3km/h 29% 0in /  0mm 594.00 W/m2
16:39 96.2 °F /  35.7 °C 59.7 °F /  15.4 °C 29.83in /  1010hPa SE 6mph /  9.7km/h 11mph /  17.7km/h 30% 0in /  0mm 580.00 W/m2
16:44 96.1 °F /  35.6 °C 59.7 °F /  15.4 °C 29.83in /  1010hPa ESE 3mph /  4.8km/h 10mph /  16.1km/h 30% 0in /  0mm 582.00 W/m2
16:49 96.4 °F /  35.8 °C 59.9 °F /  15.5 °C 29.83in /  1010hPa ESE 8mph /  12.9km/h 10mph /  16.1km/h 30% 0in /  0mm 584.00 W/m2
16:54 96.3 °F /  35.7 °C 57.9 °F /  14.4 °C 29.83in /  1010hPa East 10mph /  16.1km/h 11mph /  17.7km/h 28% 0in /  0mm 552.00 W/m2
16:59 96.1 °F /  35.6 °C 58.7 °F /  14.8 °C 29.83in /  1010hPa East 8mph /  12.9km/h 11mph /  17.7km/h 29% 0in /  0mm 548.00 W/m2
17:04 96.3 °F /  35.7 °C 59.8 °F /  15.4 °C 29.83in /  1010hPa ENE 1mph /  1.6km/h 11mph /  17.7km/h 30% 0in /  0mm 538.00 W/m2
17:09 96.4 °F /  35.8 °C 59 °F /  15 °C 29.83in /  1010hPa ENE 9mph /  14.5km/h 11mph /  17.7km/h 29% 0in /  0mm 529.00 W/m2
17:14 96.5 °F /  35.8 °C 58.1 °F /  14.5 °C 29.83in /  1010hPa ENE 11mph /  17.7km/h 13mph /  20.9km/h 28% 0in /  0mm 527.00 W/m2
17:19 96.4 °F /  35.8 °C 57 °F /  13.9 °C 29.83in /  1010hPa NE 5mph /  8km/h 13mph /  20.9km/h 27% 0in /  0mm 522.00 W/m2
17:24 96.5 °F /  35.8 °C 58.1 °F /  14.5 °C 29.83in /  1010hPa SE 3mph /  4.8km/h 11mph /  17.7km/h 28% 0in /  0mm 508.00 W/m2
17:29 96.5 °F /  35.8 °C 59 °F /  15 °C 29.83in /  1010hPa East 9mph /  14.5km/h 15mph /  24.1km/h 29% 0in /  0mm 490.00 W/m2
17:34 96 °F /  35.6 °C 59.6 °F /  15.3 °C 29.82in /  1009.7hPa East 8mph /  12.9km/h 15mph /  24.1km/h 30% 0in /  0mm 478.00 W/m2
17:39 95.8 °F /  35.4 °C 60.3 °F /  15.7 °C 29.82in /  1009.7hPa East 7mph /  11.3km/h 11mph /  17.7km/h 31% 0in /  0mm 466.00 W/m2
17:44 95.8 °F /  35.4 °C 61.2 °F /  16.2 °C 29.82in /  1009.7hPa East 7mph /  11.3km/h 11mph /  17.7km/h 32% 0in /  0mm 452.00 W/m2
17:49 95.6 °F /  35.3 °C 61 °F /  16.1 °C 29.82in /  1009.7hPa ESE 10mph /  16.1km/h 14mph /  22.5km/h 32% 0in /  0mm 439.00 W/m2
17:54 95.2 °F /  35.1 °C 59.8 °F /  15.4 °C 29.82in /  1009.7hPa ENE 9mph /  14.5km/h 14mph /  22.5km/h 31% 0in /  0mm 418.00 W/m2
17:59 95.2 °F /  35.1 °C 60.7 °F /  15.9 °C 29.82in /  1009.7hPa East 8mph /  12.9km/h 14mph /  22.5km/h 32% 0in /  0mm 413.00 W/m2
18:04 95.2 °F /  35.1 °C 60.7 °F /  15.9 °C 29.82in /  1009.7hPa ESE 10mph /  16.1km/h 15mph /  24.1km/h 32% 0in /  0mm 390.00 W/m2
18:09 94.9 °F /  34.9 °C 60.4 °F /  15.8 °C 29.82in /  1009.7hPa ESE 8mph /  12.9km/h 15mph /  24.1km/h 32% 0in /  0mm 373.00 W/m2
18:14 94.6 °F /  34.8 °C 61 °F /  16.1 °C 29.83in /  1010hPa East 6mph /  9.7km/h 14mph /  22.5km/h 33% 0in /  0mm 359.00 W/m2
18:19 94.6 °F /  34.8 °C 61.9 °F /  16.6 °C 29.83in /  1010hPa ESE 9mph /  14.5km/h 11mph /  17.7km/h 34% 0in /  0mm 346.00 W/m2
18:24 94.4 °F /  34.7 °C 60.9 °F /  16.1 °C 29.83in /  1010hPa ESE 10mph /  16.1km/h 11mph /  17.7km/h 33% 0in /  0mm 327.00 W/m2
18:29 94.3 °F /  34.6 °C 60.8 °F /  16 °C 29.83in /  1010hPa East 5mph /  8km/h 11mph /  17.7km/h 33% 0in /  0mm 322.00 W/m2
18:34 94.2 °F /  34.6 °C 59.8 °F /  15.4 °C 29.82in /  1009.7hPa East 8mph /  12.9km/h 11mph /  17.7km/h 32% 0in /  0mm 309.00 W/m2
18:39 94.1 °F /  34.5 °C 59.7 °F /  15.4 °C 29.82in /  1009.7hPa ESE 7mph /  11.3km/h 13mph /  20.9km/h 32% 0in /  0mm 288.00 W/m2
18:44 93.9 °F /  34.4 °C 59.6 °F /  15.3 °C 29.82in /  1009.7hPa ESE 8mph /  12.9km/h 13mph /  20.9km/h 32% 0in /  0mm 274.00 W/m2
18:49 93.5 °F /  34.2 °C 58.3 °F /  14.6 °C 29.82in /  1009.7hPa ESE 7mph /  11.3km/h 11mph /  17.7km/h 31% 0in /  0mm 265.00 W/m2
18:54 93.3 °F /  34.1 °C 59.9 °F /  15.5 °C 29.82in /  1009.7hPa East 9mph /  14.5km/h 11mph /  17.7km/h 33% 0in /  0mm 250.00 W/m2
18:59 93 °F /  33.9 °C 59.6 °F /  15.3 °C 29.83in /  1010hPa East 8mph /  12.9km/h 11mph /  17.7km/h 33% 0in /  0mm 239.00 W/m2
19:04 92.8 °F /  33.8 °C 60.3 °F /  15.7 °C 29.82in /  1009.7hPa East 6mph /  9.7km/h 11mph /  17.7km/h 34% 0in /  0mm 223.00 W/m2
19:09 92.6 °F /  33.7 °C 59.3 °F /  15.2 °C 29.83in /  1010hPa East 8mph /  12.9km/h 12mph /  19.3km/h 33% 0in /  0mm 211.00 W/m2
19:14 92.3 °F /  33.5 °C 60.7 °F /  15.9 °C 29.82in /  1009.7hPa East 8mph /  12.9km/h 12mph /  19.3km/h 35% 0in /  0mm 199.00 W/m2
19:19 91.9 °F /  33.3 °C 61.1 °F /  16.2 °C 29.83in /  1010hPa East 8mph /  12.9km/h 11mph /  17.7km/h 36% 0in /  0mm 186.00 W/m2
19:24 91.4 °F /  33 °C 61.5 °F /  16.4 °C 29.82in /  1009.7hPa ENE 9mph /  14.5km/h 14mph /  22.5km/h 37% 0in /  0mm 174.00 W/m2
19:29 91 °F /  32.8 °C 61.9 °F /  16.6 °C 29.82in /  1009.7hPa East 7mph /  11.3km/h 14mph /  22.5km/h 38% 0in /  0mm 158.00 W/m2
19:34 90.7 °F /  32.6 °C 62.3 °F /  16.8 °C 29.83in /  1010hPa ESE 4mph /  6.4km/h 14mph /  22.5km/h 39% 0in /  0mm 142.00 W/m2
19:39 90.3 °F /  32.4 °C 62.7 °F /  17.1 °C 29.82in /  1009.7hPa East 8mph /  12.9km/h 10mph /  16.1km/h 40% 0in /  0mm 130.00 W/m2
19:44 89.9 °F /  32.2 °C 62.3 °F /  16.8 °C 29.82in /  1009.7hPa ENE 8mph /  12.9km/h 11mph /  17.7km/h 40% 0in /  0mm 114.00 W/m2
19:49 89.4 °F /  31.9 °C 61.9 °F /  16.6 °C 29.82in /  1009.7hPa East 8mph /  12.9km/h 12mph /  19.3km/h 40% 0in /  0mm 102.00 W/m2
19:54 89 °F /  31.7 °C 61.5 °F /  16.4 °C 29.82in /  1009.7hPa ESE 5mph /  8km/h 12mph /  19.3km/h 40% 0in /  0mm 88.00 W/m2
19:59 88.6 °F /  31.4 °C 61.9 °F /  16.6 °C 29.82in /  1009.7hPa East 6mph /  9.7km/h 10mph /  16.1km/h 41% 0in /  0mm 79.00 W/m2
20:04 88 °F /  31.1 °C 62 °F /  16.7 °C 29.82in /  1009.7hPa East 7mph /  11.3km/h 11mph /  17.7km/h 42% 0in /  0mm 67.00 W/m2
20:09 87.5 °F /  30.8 °C 62.2 °F /  16.8 °C 29.82in /  1009.7hPa East 7mph /  11.3km/h 11mph /  17.7km/h 43% 0in /  0mm 56.00 W/m2
20:14 87 °F /  30.6 °C 61.8 °F /  16.6 °C 29.83in /  1010hPa ENE 5mph /  8km/h 9mph /  14.5km/h 43% 0in /  0mm 49.00 W/m2
20:19 86.5 °F /  30.3 °C 62 °F /  16.7 °C 29.82in /  1009.7hPa East 7mph /  11.3km/h 10mph /  16.1km/h 44% 0in /  0mm 42.00 W/m2
20:24 86.1 °F /  30.1 °C 61.6 °F /  16.4 °C 29.83in /  1010hPa East 7mph /  11.3km/h 11mph /  17.7km/h 44% 0in /  0mm 35.00 W/m2
20:29 85.5 °F /  29.7 °C 61.7 °F /  16.5 °C 29.83in /  1010hPa East 6mph /  9.7km/h 11mph /  17.7km/h 45% 0in /  0mm 28.00 W/m2
20:34 84.9 °F /  29.4 °C 61.8 °F /  16.6 °C 29.83in /  1010hPa East 7mph /  11.3km/h 10mph /  16.1km/h 46% 0in /  0mm 25.00 W/m2
20:39 84.3 °F /  29.1 °C 61.9 °F /  16.6 °C 29.83in /  1010hPa East 6mph /  9.7km/h 10mph /  16.1km/h 47% 0in /  0mm 19.00 W/m2
20:44 83.8 °F /  28.8 °C 61.4 °F /  16.3 °C 29.84in /  1010.4hPa East 7mph /  11.3km/h 10mph /  16.1km/h 47% 0in /  0mm 16.00 W/m2
20:49 83.3 °F /  28.5 °C 61.6 °F /  16.4 °C 29.84in /  1010.4hPa East 8mph /  12.9km/h 10mph /  16.1km/h 48% 0in /  0mm 12.00 W/m2
20:54 82.7 °F /  28.2 °C 61 °F /  16.1 °C 29.84in /  1010.4hPa ESE 5mph /  8km/h 10mph /  16.1km/h 48% 0in /  0mm 9.00 W/m2
20:59 82.2 °F /  27.9 °C 61.1 °F /  16.2 °C 29.84in /  1010.4hPa East 6mph /  9.7km/h 9mph /  14.5km/h 49% 0in /  0mm 5.00 W/m2
21:04 81.8 °F /  27.7 °C 61.3 °F /  16.3 °C 29.84in /  1010.4hPa ENE 7mph /  11.3km/h 9mph /  14.5km/h 50% 0in /  0mm 0.00 W/m2
21:09 81.4 °F /  27.4 °C 61 °F /  16.1 °C 29.84in /  1010.4hPa ENE 8mph /  12.9km/h 9mph /  14.5km/h 50% 0in /  0mm 0.00 W/m2
21:14 80.9 °F /  27.2 °C 61.1 °F /  16.2 °C 29.84in /  1010.4hPa East 7mph /  11.3km/h 9mph /  14.5km/h 51% 0in /  0mm 0.00 W/m2
21:19 80.5 °F /  26.9 °C 61.3 °F /  16.3 °C 29.84in /  1010.4hPa East 8mph /  12.9km/h 9mph /  14.5km/h 52% 0in /  0mm 0.00 W/m2
21:24 80.3 °F /  26.8 °C 61.1 °F /  16.2 °C 29.84in /  1010.4hPa East 7mph /  11.3km/h 10mph /  16.1km/h 52% 0in /  0mm 0.00 W/m2
21:29 80 °F /  26.7 °C 61.3 °F /  16.3 °C 29.85in /  1010.7hPa East 7mph /  11.3km/h 10mph /  16.1km/h 53% 0in /  0mm 0.00 W/m2
21:34 79.8 °F /  26.6 °C 61.1 °F /  16.2 °C 29.84in /  1010.4hPa ENE 4mph /  6.4km/h 11mph /  17.7km/h 53% 0in /  0mm 0.00 W/m2
21:39 79.7 °F /  26.5 °C 61.1 °F /  16.2 °C 29.85in /  1010.7hPa East 8mph /  12.9km/h 11mph /  17.7km/h 53% 0in /  0mm 0.00 W/m2
21:44 79.4 °F /  26.3 °C 61.3 °F /  16.3 °C 29.85in /  1010.7hPa East 7mph /  11.3km/h 11mph /  17.7km/h 54% 0in /  0mm 0.00 W/m2
21:49 79 °F /  26.1 °C 61.5 °F /  16.4 °C 29.85in /  1010.7hPa East 6mph /  9.7km/h 11mph /  17.7km/h 55% 0in /  0mm 0.00 W/m2
21:54 78.6 °F /  25.9 °C 61.6 °F /  16.4 °C 29.85in /  1010.7hPa ENE 9mph /  14.5km/h 11mph /  17.7km/h 56% 0in /  0mm 0.00 W/m2
21:59 78.2 °F /  25.7 °C 61.2 °F /  16.2 °C 29.85in /  1010.7hPa East 7mph /  11.3km/h 11mph /  17.7km/h 56% 0in /  0mm 0.00 W/m2
22:04 77.5 °F /  25.3 °C 61.6 °F /  16.4 °C 29.85in /  1010.7hPa SE 3mph /  4.8km/h 10mph /  16.1km/h 58% 0in /  0mm 0.00 W/m2
22:09 76.8 °F /  24.9 °C 61.4 °F /  16.3 °C 29.86in /  1011.1hPa SE 5mph /  8km/h 9mph /  14.5km/h 59% 0in /  0mm 0.00 W/m2
22:14 76.4 °F /  24.7 °C 61.5 °F /  16.4 °C 29.86in /  1011.1hPa ESE 5mph /  8km/h 7mph /  11.3km/h 60% 0in /  0mm 0.00 W/m2
22:19 76.6 °F /  24.8 °C 61.7 °F /  16.5 °C 29.86in /  1011.1hPa ESE 9mph /  14.5km/h 9mph /  14.5km/h 60% 0in /  0mm 0.00 W/m2
22:24 76.9 °F /  24.9 °C 62 °F /  16.7 °C 29.86in /  1011.1hPa ESE 4mph /  6.4km/h 9mph /  14.5km/h 60% 0in /  0mm 0.00 W/m2
22:29 76.8 °F /  24.9 °C 61.9 °F /  16.6 °C 29.86in /  1011.1hPa East 7mph /  11.3km/h 10mph /  16.1km/h 60% 0in /  0mm 0.00 W/m2
22:34 76.5 °F /  24.7 °C 62 °F /  16.7 °C 29.86in /  1011.1hPa East 9mph /  14.5km/h 10mph /  16.1km/h 61% 0in /  0mm 0.00 W/m2
22:39 76.1 °F /  24.5 °C 62.6 °F /  17 °C 29.86in /  1011.1hPa East 7mph /  11.3km/h 10mph /  16.1km/h 63% 0in /  0mm 0.00 W/m2
22:44 75.6 °F /  24.2 °C 63 °F /  17.2 °C 29.86in /  1011.1hPa East 8mph /  12.9km/h 10mph /  16.1km/h 65% 0in /  0mm 0.00 W/m2
22:49 75.1 °F /  23.9 °C 63.4 °F /  17.4 °C 29.86in /  1011.1hPa ESE 5mph /  8km/h 11mph /  17.7km/h 67% 0in /  0mm 0.00 W/m2
22:54 74.8 °F /  23.8 °C 63.9 °F /  17.7 °C 29.86in /  1011.1hPa ESE 7mph /  11.3km/h 11mph /  17.7km/h 69% 0in /  0mm 0.00 W/m2
22:59 74.7 °F /  23.7 °C 64.7 °F /  18.2 °C 29.86in /  1011.1hPa ESE 7mph /  11.3km/h 9mph /  14.5km/h 71% 0in /  0mm 0.00 W/m2
23:04 74.6 °F /  23.7 °C 65 °F /  18.3 °C 29.86in /  1011.1hPa ESE 7mph /  11.3km/h 9mph /  14.5km/h 72% 0in /  0mm 0.00 W/m2
23:09 74.7 °F /  23.7 °C 65.5 °F /  18.6 °C 29.86in /  1011.1hPa ESE 7mph /  11.3km/h 11mph /  17.7km/h 73% 0in /  0mm 0.00 W/m2
23:14 74.8 °F /  23.8 °C 66 °F /  18.9 °C 29.86in /  1011.1hPa ESE 7mph /  11.3km/h 13mph /  20.9km/h 74% 0in /  0mm 0.00 W/m2
23:19 74.7 °F /  23.7 °C 65.9 °F /  18.8 °C 29.86in /  1011.1hPa ESE 8mph /  12.9km/h 13mph /  20.9km/h 74% 0in /  0mm 0.00 W/m2
23:24 74.2 °F /  23.4 °C 65.8 °F /  18.8 °C 29.86in /  1011.1hPa ESE 9mph /  14.5km/h 11mph /  17.7km/h 75% 0in /  0mm 0.00 W/m2
23:29 73.8 °F /  23.2 °C 66.1 °F /  18.9 °C 29.86in /  1011.1hPa ESE 10mph /  16.1km/h 12mph /  19.3km/h 77% 0in /  0mm 0.00 W/m2
23:34 73.6 °F /  23.1 °C 65.9 °F /  18.8 °C 29.86in /  1011.1hPa East 10mph /  16.1km/h 12mph /  19.3km/h 77% 0in /  0mm 0.00 W/m2
23:39 73.5 °F /  23.1 °C 65.8 °F /  18.8 °C 29.86in /  1011.1hPa East 11mph /  17.7km/h 12mph /  19.3km/h 77% 0in /  0mm 0.00 W/m2
23:44 73.3 °F /  22.9 °C 66 °F /  18.9 °C 29.86in /  1011.1hPa ESE 8mph /  12.9km/h 13mph /  20.9km/h 78% 0in /  0mm 0.00 W/m2
23:49 73.1 °F /  22.8 °C 66.2 °F /  19 °C 29.86in /  1011.1hPa East 9mph /  14.5km/h 13mph /  20.9km/h 79% 0in /  0mm 0.00 W/m2
23:54 72.8 °F /  22.7 °C 65.9 °F /  18.8 °C 29.86in /  1011.1hPa ESE 9mph /  14.5km/h 11mph /  17.7km/h 79% 0in /  0mm 0.00 W/m2
23:59 72.5 °F /  22.5 °C 66 °F /  18.9 °C 29.86in /  1011.1hPa ESE 10mph /  16.1km/h 11mph /  17.7km/h 80% 0in /  0mm 0.00 W/m2
Bismarck, North Dakota, USA
Compliments of Weather Underground - 4 mb